createdAt,value
2023-01-19T00:01:15.631Z,91.20
2023-01-19T00:03:43.887Z,91.24
2023-01-19T00:06:12.373Z,91.19
2023-01-19T00:08:40.582Z,91.19
2023-01-19T00:11:08.749Z,91.19
2023-01-19T00:13:37.292Z,91.22
2023-01-19T00:16:06.928Z,91.33
2023-01-19T00:18:34.959Z,91.33
2023-01-19T00:21:03.148Z,91.20
2023-01-19T00:23:31.888Z,91.14
2023-01-19T00:26:00.283Z,91.08
2023-01-19T00:28:28.397Z,91.06
2023-01-19T00:30:56.579Z,91.01
2023-01-19T00:33:24.697Z,90.81
2023-01-19T00:35:55.390Z,90.79
2023-01-19T00:38:23.466Z,90.79
2023-01-19T00:40:51.687Z,90.92
2023-01-19T00:43:20.039Z,90.88
2023-01-19T00:45:48.080Z,90.72
2023-01-19T00:48:16.086Z,90.56
2023-01-19T00:50:44.373Z,90.70
2023-01-19T00:53:12.416Z,90.68
2023-01-19T00:55:40.520Z,90.69
2023-01-19T00:58:08.881Z,90.51
2023-01-19T01:00:36.916Z,90.58
2023-01-19T01:03:05.428Z,90.39
2023-01-19T01:05:34.127Z,90.32
2023-01-19T01:08:02.304Z,90.28
2023-01-19T01:10:30.540Z,90.48
2023-01-19T01:12:59.070Z,90.38
2023-01-19T01:15:28.326Z,90.44
2023-01-19T01:17:56.693Z,90.21
2023-01-19T01:20:28.154Z,90.26
2023-01-19T01:22:57.683Z,89.99
2023-01-19T01:25:28.624Z,89.82
2023-01-19T01:27:56.851Z,89.79
2023-01-19T01:30:25.172Z,89.62
2023-01-19T01:32:53.389Z,89.50
2023-01-19T01:35:21.454Z,89.23
2023-01-19T01:37:49.806Z,89.25
2023-01-19T01:40:19.757Z,89.15
2023-01-19T01:42:47.796Z,89.04
2023-01-19T01:45:35.468Z,88.93
2023-01-19T01:48:10.344Z,88.63
2023-01-19T01:51:23.140Z,88.59
2023-01-19T01:54:10.740Z,88.51
2023-01-19T01:56:53.728Z,88.51
2023-01-19T01:59:34.943Z,88.51
2023-01-19T02:06:03.951Z,88.61
2023-01-19T02:09:06.283Z,88.51
2023-01-19T02:11:54.634Z,88.54
2023-01-19T02:14:22.706Z,88.57
2023-01-19T02:16:51.418Z,88.47
2023-01-19T02:19:28.023Z,88.38
2023-01-19T02:22:06.598Z,88.26
2023-01-19T02:24:35.787Z,88.15
2023-01-19T02:27:05.236Z,88.22
2023-01-19T02:29:34.576Z,88.20
2023-01-19T02:32:03.294Z,88.34
2023-01-19T02:34:32.358Z,88.27
2023-01-19T02:37:06.936Z,88.45
2023-01-19T02:39:41.463Z,88.34
2023-01-19T02:42:15.704Z,88.29
2023-01-19T02:44:49.223Z,88.17
2023-01-19T02:47:17.394Z,88.13
2023-01-19T02:49:54.137Z,88.05
2023-01-19T02:52:22.681Z,88.12
2023-01-19T02:55:06.570Z,88.08
2023-01-19T02:58:00.126Z,88.12
2023-01-19T03:00:47.139Z,87.90
2023-01-19T03:03:24.539Z,87.84
2023-01-19T03:06:26.948Z,87.61
2023-01-19T03:09:09.244Z,87.41
2023-01-19T03:11:42.083Z,87.39
2023-01-19T03:14:20.431Z,87.68
2023-01-19T03:16:55.657Z,87.80
2023-01-19T03:19:31.499Z,87.98
2023-01-19T03:22:03.748Z,87.94
2023-01-19T03:24:37.122Z,87.82
2023-01-19T03:27:12.146Z,87.77
2023-01-19T03:29:46.835Z,87.59
2023-01-19T03:32:17.840Z,87.58
2023-01-19T03:34:48.789Z,88.00
2023-01-19T03:37:19.773Z,88.44
2023-01-19T03:39:48.025Z,88.72
2023-01-19T03:42:18.215Z,88.84
2023-01-19T03:44:50.666Z,88.84
2023-01-19T03:47:20.410Z,88.81
2023-01-19T03:49:50.968Z,88.83
2023-01-19T03:52:28.001Z,88.81
2023-01-19T03:54:56.534Z,88.75
2023-01-19T03:57:24.633Z,88.47
2023-01-19T03:59:53.638Z,88.00
2023-01-19T04:02:21.697Z,87.91
2023-01-19T04:04:49.752Z,88.03
2023-01-19T04:07:18.020Z,87.94
2023-01-19T04:09:46.287Z,88.02
2023-01-19T04:12:14.291Z,88.09
2023-01-19T04:14:42.390Z,88.14
2023-01-19T04:17:10.511Z,88.12
2023-01-19T04:19:38.690Z,88.09
2023-01-19T04:22:06.795Z,87.58
2023-01-19T04:24:35.365Z,87.28
2023-01-19T04:27:03.493Z,87.25
2023-01-19T04:29:31.674Z,87.75
2023-01-19T04:31:59.992Z,88.09
2023-01-19T04:34:28.028Z,88.03
2023-01-19T04:36:56.220Z,88.14
2023-01-19T04:39:24.881Z,88.31
2023-01-19T04:41:53.185Z,88.33
2023-01-19T04:44:21.388Z,88.51
2023-01-19T04:46:51.607Z,88.46
2023-01-19T04:49:19.626Z,88.35
2023-01-19T04:51:47.686Z,88.28
2023-01-19T04:54:15.861Z,88.62
2023-01-19T04:56:43.892Z,88.74
2023-01-19T04:59:12.567Z,88.80
2023-01-19T05:01:40.684Z,88.50
2023-01-19T05:04:09.235Z,88.56
2023-01-19T05:06:37.429Z,88.57
2023-01-19T05:09:07.922Z,88.49
2023-01-19T05:11:36.245Z,88.30
2023-01-19T05:14:04.228Z,88.26
2023-01-19T05:16:32.666Z,88.46
2023-01-19T05:19:00.983Z,88.26
2023-01-19T05:21:28.980Z,88.24
2023-01-19T05:23:57.149Z,88.11
2023-01-19T05:26:25.139Z,88.10
2023-01-19T05:28:53.142Z,88.15
2023-01-19T05:31:21.413Z,88.06
2023-01-19T05:33:49.637Z,88.24
2023-01-19T05:36:17.734Z,88.45
2023-01-19T05:38:46.008Z,88.37
2023-01-19T05:41:14.335Z,88.57
2023-01-19T05:43:42.468Z,88.68
2023-01-19T05:46:10.781Z,88.70
2023-01-19T05:48:39.217Z,88.73
2023-01-19T05:51:07.827Z,88.65
2023-01-19T05:53:35.842Z,88.58
2023-01-19T05:56:06.302Z,88.48
2023-01-19T05:58:35.542Z,88.50
2023-01-19T06:01:06.098Z,88.44
2023-01-19T06:03:35.833Z,88.33
2023-01-19T06:06:04.301Z,88.17
2023-01-19T06:08:32.700Z,87.99
2023-01-19T06:11:00.798Z,88.36
2023-01-19T06:13:28.938Z,88.69
2023-01-19T06:16:01.148Z,88.71
2023-01-19T06:18:29.753Z,88.69
2023-01-19T06:21:00.562Z,88.36
2023-01-19T06:23:31.871Z,88.20
2023-01-19T06:26:00.553Z,88.41
2023-01-19T06:28:28.723Z,88.42
2023-01-19T06:30:57.554Z,88.86
2023-01-19T06:33:26.258Z,89.15
2023-01-19T06:35:55.402Z,89.09
2023-01-19T06:38:23.742Z,88.90
2023-01-19T06:40:54.697Z,88.90
2023-01-19T06:43:23.114Z,89.04
2023-01-19T06:45:52.169Z,89.13
2023-01-19T06:48:21.154Z,89.17
2023-01-19T06:50:49.226Z,89.09
2023-01-19T06:53:17.652Z,89.20
2023-01-19T06:55:46.144Z,89.51
2023-01-19T06:58:14.261Z,89.79
2023-01-19T07:00:43.329Z,89.92
2023-01-19T07:03:20.539Z,89.84
2023-01-19T07:05:53.248Z,89.92
2023-01-19T07:08:21.346Z,89.93
2023-01-19T07:11:25.535Z,89.81
2023-01-19T07:13:40.173Z,90.01
2023-01-19T07:16:11.556Z,90.29
2023-01-19T07:18:41.122Z,90.31
2023-01-19T07:21:09.728Z,90.48
2023-01-19T07:23:38.636Z,90.53
2023-01-19T07:26:07.103Z,90.66
2023-01-19T07:28:37.212Z,90.77
2023-01-19T07:31:05.732Z,90.50
2023-01-19T07:33:34.130Z,90.42
2023-01-19T07:36:02.192Z,90.31
2023-01-19T07:38:30.217Z,90.42
2023-01-19T07:41:02.781Z,90.49
2023-01-19T07:43:31.565Z,90.55
2023-01-19T07:46:01.997Z,90.59
2023-01-19T07:48:30.331Z,90.83
2023-01-19T07:51:05.356Z,90.86
2023-01-19T07:53:33.710Z,90.91
2023-01-19T07:56:01.944Z,90.98
2023-01-19T07:58:30.157Z,90.98
2023-01-19T08:00:58.540Z,90.96
2023-01-19T08:03:26.624Z,91.11
2023-01-19T08:05:54.908Z,91.23
2023-01-19T08:08:23.443Z,91.45
2023-01-19T08:10:52.570Z,91.35
2023-01-19T08:13:20.856Z,91.36
2023-01-19T08:15:51.517Z,91.30
2023-01-19T08:18:21.102Z,91.34
2023-01-19T08:20:49.391Z,91.39
2023-01-19T08:23:18.397Z,91.64
2023-01-19T08:25:46.589Z,91.54
2023-01-19T08:28:16.417Z,91.62
2023-01-19T08:30:45.414Z,91.63
2023-01-19T08:33:14.140Z,91.82
2023-01-19T08:35:47.438Z,91.82
2023-01-19T08:38:17.257Z,91.66
2023-01-19T08:40:45.563Z,91.64
2023-01-19T08:43:16.415Z,91.60
2023-01-19T08:45:51.695Z,91.67
2023-01-19T08:48:24.580Z,91.87
2023-01-19T08:50:53.063Z,91.75
2023-01-19T08:53:23.738Z,91.81
2023-01-19T08:56:00.124Z,91.79
2023-01-19T08:58:28.735Z,91.81
2023-01-19T09:00:59.660Z,91.82
2023-01-19T09:03:27.939Z,91.82
2023-01-19T09:05:55.976Z,91.87
2023-01-19T09:08:24.060Z,91.83
2023-01-19T09:10:52.059Z,91.83
2023-01-19T09:13:20.524Z,92.07
2023-01-19T09:15:48.644Z,92.28
2023-01-19T09:18:22.560Z,92.38
2023-01-19T09:20:50.937Z,92.02
2023-01-19T09:23:20.628Z,91.92
2023-01-19T09:25:49.400Z,91.80
2023-01-19T09:28:17.897Z,91.80
2023-01-19T09:30:46.795Z,91.61
2023-01-19T09:33:17.297Z,91.52
2023-01-19T09:35:47.185Z,91.36
2023-01-19T09:38:16.873Z,91.19
2023-01-19T09:40:51.961Z,91.28
2023-01-19T09:43:26.365Z,91.30
2023-01-19T09:46:03.674Z,91.40
2023-01-19T09:48:48.693Z,91.50
2023-01-19T09:51:19.775Z,91.49
2023-01-19T09:53:55.613Z,91.49
2023-01-19T09:56:24.790Z,91.33
2023-01-19T09:58:53.178Z,91.40
2023-01-19T10:01:24.055Z,91.37
2023-01-19T10:04:14.625Z,91.48
2023-01-19T10:06:43.399Z,91.68
2023-01-19T10:09:32.199Z,91.63
2023-01-19T10:12:12.606Z,91.50
2023-01-19T10:14:54.960Z,91.34
2023-01-19T10:17:41.799Z,91.41
2023-01-19T10:20:19.778Z,91.33
2023-01-19T10:22:49.633Z,91.21
2023-01-19T10:25:23.915Z,91.27
2023-01-19T10:27:52.313Z,91.33
2023-01-19T10:30:24.295Z,90.94
2023-01-19T10:32:53.156Z,90.65
2023-01-19T10:35:25.018Z,90.59
2023-01-19T10:37:57.828Z,90.71
2023-01-19T10:40:33.149Z,90.41
2023-01-19T10:43:02.140Z,90.20
2023-01-19T10:45:31.642Z,90.16
2023-01-19T10:48:06.781Z,90.27
2023-01-19T10:50:40.096Z,90.56
2023-01-19T10:53:21.421Z,90.67
2023-01-19T10:56:11.707Z,90.80
2023-01-19T10:58:40.845Z,90.67
2023-01-19T11:01:15.040Z,90.66
2023-01-19T11:03:43.249Z,90.62
2023-01-19T11:06:15.507Z,90.64
2023-01-19T11:08:46.021Z,90.68
2023-01-19T11:11:14.492Z,90.54
2023-01-19T11:13:43.254Z,90.56
2023-01-19T11:16:25.215Z,90.62
2023-01-19T11:18:55.748Z,90.59
2023-01-19T11:21:29.003Z,90.73
2023-01-19T11:24:01.377Z,90.77
2023-01-19T11:26:42.220Z,90.72
2023-01-19T11:29:26.883Z,90.67
2023-01-19T11:31:57.599Z,90.49
2023-01-19T11:34:34.537Z,90.55
2023-01-19T11:37:05.277Z,90.58
2023-01-19T11:39:49.761Z,90.30
2023-01-19T11:42:19.195Z,90.36
2023-01-19T11:45:03.582Z,90.23
2023-01-19T11:47:46.673Z,90.09
2023-01-19T11:50:23.611Z,90.17
2023-01-19T11:52:59.266Z,90.27
2023-01-19T11:55:45.534Z,90.02
2023-01-19T11:58:16.608Z,90.02
2023-01-19T12:00:52.398Z,90.13
2023-01-19T12:03:41.159Z,90.03
2023-01-19T12:06:19.880Z,89.89
2023-01-19T12:09:23.852Z,90.02
2023-01-19T12:12:21.885Z,90.14
2023-01-19T12:15:35.827Z,90.09
2023-01-19T12:18:08.236Z,90.07
2023-01-19T12:20:51.218Z,90.12
2023-01-19T12:23:25.376Z,89.72
2023-01-19T12:26:04.845Z,89.69
2023-01-19T12:28:39.353Z,89.56
2023-01-19T12:31:08.510Z,89.49
2023-01-19T12:33:40.550Z,89.43
2023-01-19T12:36:26.514Z,89.48
2023-01-19T12:39:03.253Z,89.33
2023-01-19T12:41:37.047Z,89.37
2023-01-19T12:44:27.764Z,89.43
2023-01-19T12:47:05.451Z,89.59
2023-01-19T12:49:37.929Z,89.64
2023-01-19T12:52:57.363Z,89.50
2023-01-19T12:55:36.534Z,89.04
2023-01-19T12:58:04.746Z,89.05
2023-01-19T13:00:38.900Z,89.05
2023-01-19T13:03:19.759Z,88.86
2023-01-19T13:05:49.503Z,88.93
2023-01-19T13:08:19.677Z,89.09
2023-01-19T13:11:00.544Z,88.92
2023-01-19T13:13:39.904Z,88.70
2023-01-19T13:16:31.346Z,88.51
2023-01-19T13:19:14.977Z,88.73
2023-01-19T13:21:48.320Z,88.55
2023-01-19T13:24:22.491Z,88.51
2023-01-19T13:26:50.931Z,88.72
2023-01-19T13:29:28.341Z,88.63
2023-01-19T13:32:03.138Z,88.86
2023-01-19T13:34:41.477Z,88.69
2023-01-19T13:37:20.166Z,88.72
2023-01-19T13:39:51.597Z,88.38
2023-01-19T13:42:30.165Z,88.43
2023-01-19T13:45:01.057Z,88.37
2023-01-19T13:47:44.035Z,88.28
2023-01-19T13:50:28.012Z,88.40
2023-01-19T13:52:57.390Z,88.43
2023-01-19T13:55:28.441Z,88.33
2023-01-19T13:57:57.848Z,88.21
2023-01-19T14:00:31.219Z,88.02
2023-01-19T14:03:13.883Z,87.96
2023-01-19T14:05:43.750Z,88.20
2023-01-19T14:08:15.753Z,88.08
2023-01-19T14:11:02.858Z,88.11
2023-01-19T14:13:37.496Z,88.34
2023-01-19T14:16:06.997Z,88.11
2023-01-19T14:18:36.382Z,88.07
2023-01-19T14:21:11.410Z,88.05
2023-01-19T14:23:42.260Z,88.16
2023-01-19T14:26:38.675Z,88.14
2023-01-19T14:29:27.083Z,88.11
2023-01-19T14:32:01.003Z,88.12
2023-01-19T14:34:34.205Z,88.14
2023-01-19T14:37:04.537Z,88.27
2023-01-19T14:39:36.119Z,87.95
2023-01-19T14:42:06.818Z,87.94
2023-01-19T14:44:39.693Z,87.73
2023-01-19T14:47:27.206Z,87.88
2023-01-19T14:49:59.627Z,87.92
2023-01-19T14:52:33.286Z,87.80
2023-01-19T14:55:04.018Z,87.72
2023-01-19T14:57:36.397Z,87.76
2023-01-19T15:00:17.784Z,87.76
2023-01-19T15:02:47.750Z,87.75
2023-01-19T15:05:16.386Z,87.60
2023-01-19T15:07:46.386Z,87.46
2023-01-19T15:10:21.127Z,87.62
2023-01-19T15:12:51.402Z,87.79
2023-01-19T15:15:31.711Z,87.58
2023-01-19T15:18:02.687Z,87.51
2023-01-19T15:20:30.935Z,87.48
2023-01-19T15:22:59.032Z,87.47
2023-01-19T15:25:30.866Z,87.57
2023-01-19T15:27:59.670Z,87.62
2023-01-19T15:30:33.568Z,87.57
2023-01-19T15:33:02.473Z,87.50
2023-01-19T15:35:30.678Z,87.49
2023-01-19T15:37:58.696Z,87.26
2023-01-19T15:40:26.845Z,87.38
2023-01-19T15:42:55.145Z,87.60
2023-01-19T15:45:36.002Z,87.40
2023-01-19T15:48:09.227Z,87.68
2023-01-19T15:50:40.241Z,87.93
2023-01-19T15:53:12.891Z,87.58
2023-01-19T15:55:41.300Z,87.44
2023-01-19T15:58:09.521Z,87.49
2023-01-19T16:00:37.534Z,87.55
2023-01-19T16:03:06.546Z,87.41
2023-01-19T16:05:42.943Z,87.43
2023-01-19T16:08:12.115Z,87.43
2023-01-19T16:10:43.424Z,87.51
2023-01-19T16:13:12.085Z,87.22
2023-01-19T16:15:42.527Z,87.27
2023-01-19T16:18:11.026Z,87.08
2023-01-19T16:20:39.171Z,87.16
2023-01-19T16:23:15.644Z,87.20
2023-01-19T16:25:44.574Z,87.16
2023-01-19T16:28:13.051Z,87.10
2023-01-19T16:30:41.146Z,87.24
2023-01-19T16:33:09.284Z,87.47
2023-01-19T16:35:37.543Z,87.17
2023-01-19T16:38:06.573Z,87.18
2023-01-19T16:40:34.566Z,87.08
2023-01-19T16:43:02.701Z,87.07
2023-01-19T16:45:30.719Z,86.94
2023-01-19T16:47:58.906Z,86.95
2023-01-19T16:50:27.340Z,87.04
2023-01-19T16:52:59.122Z,86.95
2023-01-19T16:55:27.218Z,86.93
2023-01-19T16:57:55.591Z,86.89
2023-01-19T17:00:23.688Z,87.01
2023-01-19T17:02:52.030Z,86.85
2023-01-19T17:05:20.163Z,86.89
2023-01-19T17:07:48.163Z,86.88
2023-01-19T17:10:16.403Z,86.87
2023-01-19T17:12:45.010Z,86.86
2023-01-19T17:15:13.095Z,86.88
2023-01-19T17:17:41.249Z,86.84
2023-01-19T17:20:10.457Z,86.87
2023-01-19T17:22:38.966Z,86.86
2023-01-19T17:25:07.706Z,86.83
2023-01-19T17:27:36.814Z,86.84
2023-01-19T17:30:05.397Z,86.89
2023-01-19T17:32:33.524Z,87.03
2023-01-19T17:35:01.820Z,87.04
2023-01-19T17:37:29.819Z,87.10
2023-01-19T17:39:57.914Z,86.89
2023-01-19T17:42:26.408Z,86.80
2023-01-19T17:44:54.392Z,86.72
2023-01-19T17:47:25.553Z,86.78
2023-01-19T17:49:53.544Z,86.96
2023-01-19T17:52:21.568Z,87.05
2023-01-19T17:54:49.659Z,86.99
2023-01-19T17:57:17.957Z,86.96
2023-01-19T17:59:47.858Z,87.07
2023-01-19T18:02:16.281Z,86.99
2023-01-19T18:04:44.615Z,86.96
2023-01-19T18:07:12.629Z,86.98
2023-01-19T18:09:40.715Z,86.93
2023-01-19T18:12:09.287Z,86.93
2023-01-19T18:14:38.089Z,87.11
2023-01-19T18:17:06.589Z,87.08
2023-01-19T18:19:34.953Z,87.02
2023-01-19T18:22:03.129Z,86.85
2023-01-19T18:24:31.383Z,87.06
2023-01-19T18:26:59.657Z,87.26
2023-01-19T18:29:27.839Z,87.28
2023-01-19T18:31:56.140Z,87.19
2023-01-19T18:34:24.328Z,87.13
2023-01-19T18:36:52.444Z,87.01
2023-01-19T18:39:20.537Z,87.00
2023-01-19T18:41:48.643Z,87.02
2023-01-19T18:44:16.668Z,87.05
2023-01-19T18:46:44.793Z,87.26
2023-01-19T18:49:13.135Z,87.34
2023-01-19T18:51:41.643Z,87.58
2023-01-19T18:54:11.077Z,87.49
2023-01-19T18:56:39.653Z,87.39
2023-01-19T18:59:07.649Z,87.20
2023-01-19T19:01:36.514Z,87.26
2023-01-19T19:04:04.997Z,87.35
2023-01-19T19:06:34.192Z,87.35
2023-01-19T19:09:03.340Z,87.50
2023-01-19T19:11:31.564Z,87.70
2023-01-19T19:14:01.794Z,87.59
2023-01-19T19:16:31.664Z,87.51
2023-01-19T19:19:01.596Z,87.56
2023-01-19T19:21:29.646Z,87.56
2023-01-19T19:23:58.565Z,87.63
2023-01-19T19:26:28.311Z,87.69
2023-01-19T19:28:56.929Z,87.74
2023-01-19T19:31:27.559Z,87.85
2023-01-19T19:33:57.540Z,87.76
2023-01-19T19:36:27.584Z,87.59
2023-01-19T19:38:56.052Z,87.57
2023-01-19T19:41:29.521Z,87.52
2023-01-19T19:43:58.239Z,87.45
2023-01-19T19:46:27.775Z,87.52
2023-01-19T19:48:56.062Z,87.67
2023-01-19T19:51:27.178Z,88.04
2023-01-19T19:53:59.979Z,87.77
2023-01-19T19:56:30.244Z,87.92
2023-01-19T19:58:59.348Z,87.98
2023-01-19T20:01:33.004Z,88.00
2023-01-19T20:04:07.716Z,87.84
2023-01-19T20:06:39.088Z,87.69
2023-01-19T20:09:10.686Z,87.64
2023-01-19T20:11:40.037Z,87.80
2023-01-19T20:14:10.343Z,87.82
2023-01-19T20:16:38.374Z,87.58
2023-01-19T20:19:06.933Z,87.67
2023-01-19T20:21:41.746Z,87.62
2023-01-19T20:24:16.000Z,87.62
2023-01-19T20:26:50.450Z,87.65
2023-01-19T20:29:19.844Z,87.61
2023-01-19T20:31:52.275Z,87.87
2023-01-19T20:34:23.460Z,87.86
2023-01-19T20:36:53.853Z,88.02
2023-01-19T20:39:23.350Z,87.92
2023-01-19T20:41:52.730Z,87.77
2023-01-19T20:44:24.716Z,87.81
2023-01-19T20:46:54.255Z,87.74
2023-01-19T20:49:22.873Z,87.80
2023-01-19T20:51:52.162Z,87.84
2023-01-19T20:54:23.201Z,87.97
2023-01-19T20:56:51.501Z,88.00
2023-01-19T20:59:19.891Z,88.13
2023-01-19T21:01:48.809Z,87.98
2023-01-19T21:04:17.850Z,88.16
2023-01-19T21:06:46.133Z,88.18
2023-01-19T21:09:14.566Z,88.34
2023-01-19T21:11:42.891Z,88.34
2023-01-19T21:14:11.047Z,88.11
2023-01-19T21:16:39.302Z,88.09
2023-01-19T21:19:07.669Z,88.18
2023-01-19T21:21:36.157Z,88.38
2023-01-19T21:24:05.100Z,88.24
2023-01-19T21:26:33.833Z,88.23
2023-01-19T21:29:02.583Z,88.13
2023-01-19T21:31:31.671Z,88.09
2023-01-19T21:33:59.979Z,88.28
2023-01-19T21:36:28.282Z,88.51
2023-01-19T21:39:00.638Z,88.49
2023-01-19T21:41:30.597Z,88.65
2023-01-19T21:44:00.223Z,88.39
2023-01-19T21:46:33.232Z,88.14
2023-01-19T21:49:04.068Z,87.99
2023-01-19T21:51:33.994Z,88.14
2023-01-19T21:54:04.247Z,88.25
2023-01-19T21:56:32.797Z,88.12
2023-01-19T21:59:04.353Z,88.33
2023-01-19T22:01:34.118Z,88.34
2023-01-19T22:04:02.404Z,88.27
2023-01-19T22:06:30.419Z,88.38
2023-01-19T22:09:00.739Z,88.54
2023-01-19T22:11:29.011Z,88.76
2023-01-19T22:13:59.800Z,88.79
2023-01-19T22:16:29.554Z,88.78
2023-01-19T22:19:02.136Z,88.57
2023-01-19T22:21:33.182Z,88.60
2023-01-19T22:24:03.835Z,88.48
2023-01-19T22:26:34.283Z,88.37
2023-01-19T22:29:05.170Z,88.26
2023-01-19T22:31:33.597Z,88.39
2023-01-19T22:34:01.690Z,88.16
2023-01-19T22:36:35.887Z,88.03
2023-01-19T22:39:06.970Z,88.12
2023-01-19T22:41:37.880Z,88.25
2023-01-19T22:44:07.740Z,87.97
2023-01-19T22:46:37.071Z,87.87
2023-01-19T22:49:07.963Z,87.92
2023-01-19T22:51:36.553Z,87.71
2023-01-19T22:54:04.837Z,87.93
2023-01-19T22:56:35.438Z,87.86
2023-01-19T22:59:04.961Z,87.74
2023-01-19T23:01:35.940Z,87.83
2023-01-19T23:04:05.660Z,87.98
2023-01-19T23:06:35.788Z,88.17
2023-01-19T23:09:07.229Z,88.00
2023-01-19T23:11:38.022Z,87.83
2023-01-19T23:14:08.502Z,87.79
2023-01-19T23:16:36.821Z,87.63
2023-01-19T23:19:04.941Z,87.77
2023-01-19T23:21:34.090Z,87.88
2023-01-19T23:24:04.461Z,87.81
2023-01-19T23:26:38.472Z,87.70
2023-01-19T23:29:11.061Z,87.51
2023-01-19T23:31:42.888Z,87.62
2023-01-19T23:34:12.363Z,87.78
2023-01-19T23:36:43.200Z,87.64
2023-01-19T23:39:16.855Z,87.54
2023-01-19T23:41:45.503Z,87.61
2023-01-19T23:44:13.966Z,87.50
2023-01-19T23:46:42.215Z,87.39
2023-01-19T23:49:10.391Z,87.39
2023-01-19T23:51:39.783Z,87.32
2023-01-19T23:54:07.998Z,87.18
2023-01-19T23:56:37.712Z,87.27
2023-01-19T23:59:08.835Z,87.13
